sensor_id;sensor_type;location;lat;lon;timestamp;P1;durP1;ratioP1;P2;durP2;ratioP2
50555;SDS011;36508;52.512;13.450;2023-12-20T00:01:03;7.60;;;7.00;;
50555;SDS011;36508;52.512;13.450;2023-12-20T00:03:29;8.60;;;7.90;;
50555;SDS011;36508;52.512;13.450;2023-12-20T00:05:54;8.33;;;7.77;;
50555;SDS011;36508;52.512;13.450;2023-12-20T00:08:20;7.33;;;6.83;;
50555;SDS011;36508;52.512;13.450;2023-12-20T00:10:46;6.93;;;6.40;;
50555;SDS011;36508;52.512;13.450;2023-12-20T00:13:12;8.10;;;7.60;;
50555;SDS011;36508;52.512;13.450;2023-12-20T00:15:37;8.13;;;7.60;;
50555;SDS011;36508;52.512;13.450;2023-12-20T00:18:03;8.07;;;7.47;;
50555;SDS011;36508;52.512;13.450;2023-12-20T00:20:29;8.00;;;7.40;;
50555;SDS011;36508;52.512;13.450;2023-12-20T00:22:57;6.97;;;6.47;;
50555;SDS011;36508;52.512;13.450;2023-12-20T00:25:23;7.17;;;6.67;;
50555;SDS011;36508;52.512;13.450;2023-12-20T00:27:49;7.37;;;6.87;;
50555;SDS011;36508;52.512;13.450;2023-12-20T00:30:15;6.70;;;6.30;;
50555;SDS011;36508;52.512;13.450;2023-12-20T00:32:41;6.70;;;6.23;;
50555;SDS011;36508;52.512;13.450;2023-12-20T00:35:32;7.47;;;6.97;;
50555;SDS011;36508;52.512;13.450;2023-12-20T00:37:58;6.93;;;6.43;;
50555;SDS011;36508;52.512;13.450;2023-12-20T00:40:29;6.27;;;5.77;;
50555;SDS011;36508;52.512;13.450;2023-12-20T00:42:58;6.07;;;5.67;;
50555;SDS011;36508;52.512;13.450;2023-12-20T00:45:24;7.17;;;6.67;;
50555;SDS011;36508;52.512;13.450;2023-12-20T00:47:49;6.67;;;6.17;;
50555;SDS011;36508;52.512;13.450;2023-12-20T00:50:15;7.33;;;6.93;;
50555;SDS011;36508;52.512;13.450;2023-12-20T00:52:41;7.50;;;7.00;;
50555;SDS011;36508;52.512;13.450;2023-12-20T00:55:06;7.80;;;7.17;;
50555;SDS011;36508;52.512;13.450;2023-12-20T00:57:32;6.93;;;6.23;;
50555;SDS011;36508;52.512;13.450;2023-12-20T00:59:59;7.20;;;6.70;;
50555;SDS011;36508;52.512;13.450;2023-12-20T01:02:24;5.67;;;5.27;;
50555;SDS011;36508;52.512;13.450;2023-12-20T01:04:50;6.13;;;5.63;;
50555;SDS011;36508;52.512;13.450;2023-12-20T01:07:16;7.43;;;6.83;;
50555;SDS011;36508;52.512;13.450;2023-12-20T01:09:41;5.80;;;5.37;;
50555;SDS011;36508;52.512;13.450;2023-12-20T01:12:07;6.43;;;5.93;;
50555;SDS011;36508;52.512;13.450;2023-12-20T01:14:32;7.03;;;6.53;;
50555;SDS011;36508;52.512;13.450;2023-12-20T01:16:58;8.43;;;7.83;;
50555;SDS011;36508;52.512;13.450;2023-12-20T01:19:24;7.37;;;6.87;;
50555;SDS011;36508;52.512;13.450;2023-12-20T01:21:52;6.73;;;6.10;;
50555;SDS011;36508;52.512;13.450;2023-12-20T01:24:17;7.67;;;7.17;;
50555;SDS011;36508;52.512;13.450;2023-12-20T01:26:43;8.80;;;8.10;;
50555;SDS011;36508;52.512;13.450;2023-12-20T01:29:08;7.90;;;7.20;;
50555;SDS011;36508;52.512;13.450;2023-12-20T01:31:35;7.97;;;7.37;;
50555;SDS011;36508;52.512;13.450;2023-12-20T01:34:01;7.80;;;7.20;;
50555;SDS011;36508;52.512;13.450;2023-12-20T01:36:26;8.00;;;7.40;;
50555;SDS011;36508;52.512;13.450;2023-12-20T01:38:52;7.40;;;6.90;;
50555;SDS011;36508;52.512;13.450;2023-12-20T01:41:17;5.93;;;5.40;;
50555;SDS011;36508;52.512;13.450;2023-12-20T01:43:43;7.40;;;6.90;;
50555;SDS011;36508;52.512;13.450;2023-12-20T01:46:09;6.90;;;6.40;;
50555;SDS011;36508;52.512;13.450;2023-12-20T01:48:35;7.00;;;6.50;;
50555;SDS011;36508;52.512;13.450;2023-12-20T01:51:01;7.70;;;6.77;;
50555;SDS011;36508;52.512;13.450;2023-12-20T01:53:28;6.60;;;6.20;;
50555;SDS011;36508;52.512;13.450;2023-12-20T01:55:55;6.63;;;6.13;;
50555;SDS011;36508;52.512;13.450;2023-12-20T01:58:23;5.80;;;5.40;;
50555;SDS011;36508;52.512;13.450;2023-12-20T02:00:49;6.30;;;5.80;;
50555;SDS011;36508;52.512;13.450;2023-12-20T02:03:15;6.40;;;6.00;;
50555;SDS011;36508;52.512;13.450;2023-12-20T02:05:43;5.10;;;4.80;;
50555;SDS011;36508;52.512;13.450;2023-12-20T02:08:11;6.47;;;6.07;;
50555;SDS011;36508;52.512;13.450;2023-12-20T02:10:37;5.67;;;5.27;;
50555;SDS011;36508;52.512;13.450;2023-12-20T02:13:03;5.23;;;4.93;;
50555;SDS011;36508;52.512;13.450;2023-12-20T02:15:29;5.33;;;4.93;;
50555;SDS011;36508;52.512;13.450;2023-12-20T02:17:55;4.90;;;4.40;;
50555;SDS011;36508;52.512;13.450;2023-12-20T02:20:20;2.70;;;2.50;;
50555;SDS011;36508;52.512;13.450;2023-12-20T02:22:46;2.63;;;2.43;;
50555;SDS011;36508;52.512;13.450;2023-12-20T02:25:12;2.20;;;2.10;;
50555;SDS011;36508;52.512;13.450;2023-12-20T02:27:37;1.87;;;1.73;;
50555;SDS011;36508;52.512;13.450;2023-12-20T02:32:37;4.23;;;1.60;;
50555;SDS011;36508;52.512;13.450;2023-12-20T02:35:02;2.60;;;2.43;;
50555;SDS011;36508;52.512;13.450;2023-12-20T02:37:28;3.50;;;3.30;;
50555;SDS011;36508;52.512;13.450;2023-12-20T02:39:54;2.60;;;2.50;;
50555;SDS011;36508;52.512;13.450;2023-12-20T02:42:20;3.50;;;3.30;;
50555;SDS011;36508;52.512;13.450;2023-12-20T02:44:45;3.53;;;3.33;;
50555;SDS011;36508;52.512;13.450;2023-12-20T02:47:11;3.90;;;3.60;;
50555;SDS011;36508;52.512;13.450;2023-12-20T02:49:36;4.87;;;3.57;;
50555;SDS011;36508;52.512;13.450;2023-12-20T02:52:02;6.57;;;3.90;;
50555;SDS011;36508;52.512;13.450;2023-12-20T02:54:28;5.83;;;5.43;;
50555;SDS011;36508;52.512;13.450;2023-12-20T02:56:54;4.77;;;4.37;;
50555;SDS011;36508;52.512;13.450;2023-12-20T02:59:19;5.70;;;5.30;;
50555;SDS011;36508;52.512;13.450;2023-12-20T03:01:48;6.33;;;5.70;;
50555;SDS011;36508;52.512;13.450;2023-12-20T03:04:14;4.30;;;4.00;;
50555;SDS011;36508;52.512;13.450;2023-12-20T03:06:39;5.57;;;5.17;;
50555;SDS011;36508;52.512;13.450;2023-12-20T03:09:05;4.63;;;4.33;;
50555;SDS011;36508;52.512;13.450;2023-12-20T03:11:30;8.70;;;5.97;;
50555;SDS011;36508;52.512;13.450;2023-12-20T03:13:56;5.57;;;4.60;;
50555;SDS011;36508;52.512;13.450;2023-12-20T03:16:22;4.63;;;4.33;;
50555;SDS011;36508;52.512;13.450;2023-12-20T03:18:48;4.30;;;3.80;;
50555;SDS011;36508;52.512;13.450;2023-12-20T03:21:14;5.87;;;3.70;;
50555;SDS011;36508;52.512;13.450;2023-12-20T03:23:40;5.00;;;4.40;;
50555;SDS011;36508;52.512;13.450;2023-12-20T03:26:09;4.10;;;3.80;;
50555;SDS011;36508;52.512;13.450;2023-12-20T03:28:38;5.07;;;4.33;;
50555;SDS011;36508;52.512;13.450;2023-12-20T03:31:04;3.90;;;3.60;;
50555;SDS011;36508;52.512;13.450;2023-12-20T03:33:29;7.83;;;4.50;;
50555;SDS011;36508;52.512;13.450;2023-12-20T03:35:55;5.00;;;4.00;;
50555;SDS011;36508;52.512;13.450;2023-12-20T03:38:21;3.83;;;3.53;;
50555;SDS011;36508;52.512;13.450;2023-12-20T03:40:49;4.20;;;3.90;;
50555;SDS011;36508;52.512;13.450;2023-12-20T03:43:15;7.10;;;3.47;;
50555;SDS011;36508;52.512;13.450;2023-12-20T03:45:41;4.67;;;3.80;;
50555;SDS011;36508;52.512;13.450;2023-12-20T03:48:08;3.50;;;3.17;;
50555;SDS011;36508;52.512;13.450;2023-12-20T03:50:34;3.60;;;2.47;;
50555;SDS011;36508;52.512;13.450;2023-12-20T03:53:00;4.03;;;2.60;;
50555;SDS011;36508;52.512;13.450;2023-12-20T03:55:26;5.07;;;3.47;;
50555;SDS011;36508;52.512;13.450;2023-12-20T03:57:52;3.50;;;2.53;;
50555;SDS011;36508;52.512;13.450;2023-12-20T04:00:17;3.80;;;2.13;;
50555;SDS011;36508;52.512;13.450;2023-12-20T04:02:43;6.90;;;2.90;;
50555;SDS011;36508;52.512;13.450;2023-12-20T04:05:09;4.60;;;2.80;;
50555;SDS011;36508;52.512;13.450;2023-12-20T04:07:35;4.90;;;2.37;;
50555;SDS011;36508;52.512;13.450;2023-12-20T04:10:01;7.43;;;3.00;;
50555;SDS011;36508;52.512;13.450;2023-12-20T04:12:28;4.53;;;2.87;;
50555;SDS011;36508;52.512;13.450;2023-12-20T04:14:54;5.70;;;2.23;;
50555;SDS011;36508;52.512;13.450;2023-12-20T04:17:21;7.90;;;3.10;;
50555;SDS011;36508;52.512;13.450;2023-12-20T04:19:48;4.70;;;1.90;;
50555;SDS011;36508;52.512;13.450;2023-12-20T04:22:14;6.83;;;2.87;;
50555;SDS011;36508;52.512;13.450;2023-12-20T04:24:40;14.83;;;2.90;;
50555;SDS011;36508;52.512;13.450;2023-12-20T04:27:07;5.70;;;2.10;;
50555;SDS011;36508;52.512;13.450;2023-12-20T04:29:33;4.43;;;2.00;;
50555;SDS011;36508;52.512;13.450;2023-12-20T04:31:59;3.47;;;1.40;;
50555;SDS011;36508;52.512;13.450;2023-12-20T04:34:25;2.40;;;1.90;;
50555;SDS011;36508;52.512;13.450;2023-12-20T04:36:51;4.00;;;2.17;;
50555;SDS011;36508;52.512;13.450;2023-12-20T04:39:17;3.83;;;2.27;;
50555;SDS011;36508;52.512;13.450;2023-12-20T04:41:43;7.20;;;2.40;;
50555;SDS011;36508;52.512;13.450;2023-12-20T04:44:08;14.93;;;2.70;;
50555;SDS011;36508;52.512;13.450;2023-12-20T04:46:34;7.83;;;2.77;;
50555;SDS011;36508;52.512;13.450;2023-12-20T04:49:00;5.23;;;3.70;;
50555;SDS011;36508;52.512;13.450;2023-12-20T04:51:26;7.10;;;1.87;;
50555;SDS011;36508;52.512;13.450;2023-12-20T04:53:51;8.20;;;3.17;;
50555;SDS011;36508;52.512;13.450;2023-12-20T04:56:17;10.33;;;3.63;;
50555;SDS011;36508;52.512;13.450;2023-12-20T04:58:43;3.03;;;2.73;;
50555;SDS011;36508;52.512;13.450;2023-12-20T05:01:09;5.27;;;2.50;;
50555;SDS011;36508;52.512;13.450;2023-12-20T05:03:34;7.00;;;2.70;;
50555;SDS011;36508;52.512;13.450;2023-12-20T05:06:00;9.73;;;2.43;;
50555;SDS011;36508;52.512;13.450;2023-12-20T05:08:26;8.27;;;2.87;;
50555;SDS011;36508;52.512;13.450;2023-12-20T05:10:54;6.97;;;3.30;;
50555;SDS011;36508;52.512;13.450;2023-12-20T05:13:20;4.23;;;1.60;;
50555;SDS011;36508;52.512;13.450;2023-12-20T05:15:46;6.63;;;3.23;;
50555;SDS011;36508;52.512;13.450;2023-12-20T05:18:11;3.03;;;2.13;;
50555;SDS011;36508;52.512;13.450;2023-12-20T05:20:38;4.87;;;3.23;;
50555;SDS011;36508;52.512;13.450;2023-12-20T05:23:03;4.27;;;3.03;;
50555;SDS011;36508;52.512;13.450;2023-12-20T05:25:29;6.53;;;3.43;;
50555;SDS011;36508;52.512;13.450;2023-12-20T05:27:55;4.20;;;1.83;;
50555;SDS011;36508;52.512;13.450;2023-12-20T05:30:21;9.03;;;3.13;;
50555;SDS011;36508;52.512;13.450;2023-12-20T05:32:47;16.10;;;3.00;;
50555;SDS011;36508;52.512;13.450;2023-12-20T05:35:13;9.50;;;4.20;;
50555;SDS011;36508;52.512;13.450;2023-12-20T05:37:38;9.33;;;3.10;;
50555;SDS011;36508;52.512;13.450;2023-12-20T05:40:04;5.50;;;2.47;;
50555;SDS011;36508;52.512;13.450;2023-12-20T05:42:30;14.73;;;3.93;;
50555;SDS011;36508;52.512;13.450;2023-12-20T05:44:56;9.03;;;2.80;;
50555;SDS011;36508;52.512;13.450;2023-12-20T05:47:21;7.53;;;4.20;;
50555;SDS011;36508;52.512;13.450;2023-12-20T05:49:47;6.60;;;2.53;;
50555;SDS011;36508;52.512;13.450;2023-12-20T05:52:13;11.53;;;3.20;;
50555;SDS011;36508;52.512;13.450;2023-12-20T05:54:38;4.20;;;1.70;;
50555;SDS011;36508;52.512;13.450;2023-12-20T05:57:04;7.20;;;3.83;;
50555;SDS011;36508;52.512;13.450;2023-12-20T05:59:30;4.40;;;1.80;;
50555;SDS011;36508;52.512;13.450;2023-12-20T06:01:55;4.10;;;2.60;;
50555;SDS011;36508;52.512;13.450;2023-12-20T06:04:21;15.43;;;3.73;;
50555;SDS011;36508;52.512;13.450;2023-12-20T06:06:46;7.23;;;2.27;;
50555;SDS011;36508;52.512;13.450;2023-12-20T06:09:12;6.97;;;2.40;;
50555;SDS011;36508;52.512;13.450;2023-12-20T06:11:38;6.97;;;2.83;;
50555;SDS011;36508;52.512;13.450;2023-12-20T06:14:03;7.57;;;2.17;;
50555;SDS011;36508;52.512;13.450;2023-12-20T06:16:29;4.83;;;2.13;;
50555;SDS011;36508;52.512;13.450;2023-12-20T06:18:55;6.97;;;2.40;;
50555;SDS011;36508;52.512;13.450;2023-12-20T06:21:21;2.70;;;1.67;;
50555;SDS011;36508;52.512;13.450;2023-12-20T06:23:46;6.50;;;3.30;;
50555;SDS011;36508;52.512;13.450;2023-12-20T06:26:12;6.77;;;1.83;;
50555;SDS011;36508;52.512;13.450;2023-12-20T06:28:37;6.67;;;2.93;;
50555;SDS011;36508;52.512;13.450;2023-12-20T06:31:06;4.93;;;2.20;;
50555;SDS011;36508;52.512;13.450;2023-12-20T06:33:32;8.17;;;3.37;;
50555;SDS011;36508;52.512;13.450;2023-12-20T06:35:58;4.23;;;2.00;;
50555;SDS011;36508;52.512;13.450;2023-12-20T06:38:23;4.00;;;2.70;;
50555;SDS011;36508;52.512;13.450;2023-12-20T06:40:49;5.40;;;2.20;;
50555;SDS011;36508;52.512;13.450;2023-12-20T06:43:15;3.20;;;2.90;;
50555;SDS011;36508;52.512;13.450;2023-12-20T06:45:40;8.30;;;2.80;;
50555;SDS011;36508;52.512;13.450;2023-12-20T06:48:06;10.40;;;2.57;;
50555;SDS011;36508;52.512;13.450;2023-12-20T06:51:22;4.43;;;2.83;;
50555;SDS011;36508;52.512;13.450;2023-12-20T06:53:50;6.23;;;3.77;;
50555;SDS011;36508;52.512;13.450;2023-12-20T06:56:19;4.27;;;2.87;;
50555;SDS011;36508;52.512;13.450;2023-12-20T06:58:45;4.27;;;2.43;;
50555;SDS011;36508;52.512;13.450;2023-12-20T07:01:11;10.30;;;5.73;;
50555;SDS011;36508;52.512;13.450;2023-12-20T07:03:37;4.57;;;1.90;;
50555;SDS011;36508;52.512;13.450;2023-12-20T07:06:03;4.00;;;2.90;;
50555;SDS011;36508;52.512;13.450;2023-12-20T07:08:29;4.33;;;1.70;;
50555;SDS011;36508;52.512;13.450;2023-12-20T07:14:03;6.57;;;2.90;;
50555;SDS011;36508;52.512;13.450;2023-12-20T07:16:28;6.13;;;2.60;;
50555;SDS011;36508;52.512;13.450;2023-12-20T07:18:54;7.07;;;2.23;;
50555;SDS011;36508;52.512;13.450;2023-12-20T07:21:21;6.60;;;2.40;;
50555;SDS011;36508;52.512;13.450;2023-12-20T07:23:47;7.57;;;3.07;;
50555;SDS011;36508;52.512;13.450;2023-12-20T07:26:12;4.23;;;1.70;;
50555;SDS011;36508;52.512;13.450;2023-12-20T07:28:38;9.80;;;3.20;;
50555;SDS011;36508;52.512;13.450;2023-12-20T07:31:05;10.80;;;4.27;;
50555;SDS011;36508;52.512;13.450;2023-12-20T07:33:31;9.10;;;2.90;;
50555;SDS011;36508;52.512;13.450;2023-12-20T07:35:57;4.50;;;3.30;;
50555;SDS011;36508;52.512;13.450;2023-12-20T07:38:24;10.30;;;2.77;;
50555;SDS011;36508;52.512;13.450;2023-12-20T07:40:50;6.13;;;2.60;;
50555;SDS011;36508;52.512;13.450;2023-12-20T07:43:16;5.97;;;2.33;;
50555;SDS011;36508;52.512;13.450;2023-12-20T07:45:42;4.50;;;3.00;;
50555;SDS011;36508;52.512;13.450;2023-12-20T07:48:08;11.93;;;3.93;;
50555;SDS011;36508;52.512;13.450;2023-12-20T07:50:33;9.27;;;2.97;;
50555;SDS011;36508;52.512;13.450;2023-12-20T08:27:16;10.77;;;2.83;;
50555;SDS011;36508;52.512;13.450;2023-12-20T08:29:43;9.80;;;2.63;;
50555;SDS011;36508;52.512;13.450;2023-12-20T08:32:10;7.03;;;2.20;;
50555;SDS011;36508;52.512;13.450;2023-12-20T08:34:35;3.50;;;1.80;;
50555;SDS011;36508;52.512;13.450;2023-12-20T08:37:01;3.20;;;2.13;;
50555;SDS011;36508;52.512;13.450;2023-12-20T08:39:27;8.23;;;2.80;;
50555;SDS011;36508;52.512;13.450;2023-12-20T08:41:52;6.53;;;2.43;;
50555;SDS011;36508;52.512;13.450;2023-12-20T08:44:18;7.33;;;2.77;;
50555;SDS011;36508;52.512;13.450;2023-12-20T08:46:44;7.20;;;1.90;;
50555;SDS011;36508;52.512;13.450;2023-12-20T08:49:10;7.90;;;3.30;;
50555;SDS011;36508;52.512;13.450;2023-12-20T08:51:35;2.50;;;1.90;;
50555;SDS011;36508;52.512;13.450;2023-12-20T08:54:07;2.83;;;2.20;;
50555;SDS011;36508;52.512;13.450;2023-12-20T08:56:33;3.37;;;2.23;;
50555;SDS011;36508;52.512;13.450;2023-12-20T08:58:59;10.37;;;4.10;;
50555;SDS011;36508;52.512;13.450;2023-12-20T09:01:25;5.30;;;3.60;;
50555;SDS011;36508;52.512;13.450;2023-12-20T09:03:50;2.13;;;1.83;;
50555;SDS011;36508;52.512;13.450;2023-12-20T09:06:16;8.60;;;3.17;;
50555;SDS011;36508;52.512;13.450;2023-12-20T09:08:42;3.60;;;2.77;;
50555;SDS011;36508;52.512;13.450;2023-12-20T09:11:08;4.60;;;2.30;;
50555;SDS011;36508;52.512;13.450;2023-12-20T09:13:37;4.67;;;2.57;;
50555;SDS011;36508;52.512;13.450;2023-12-20T09:16:03;6.97;;;5.43;;
50555;SDS011;36508;52.512;13.450;2023-12-20T09:18:38;5.17;;;2.50;;
50555;SDS011;36508;52.512;13.450;2023-12-20T09:21:04;4.60;;;2.20;;
50555;SDS011;36508;52.512;13.450;2023-12-20T09:23:41;12.87;;;3.30;;
50555;SDS011;36508;52.512;13.450;2023-12-20T09:26:28;4.53;;;2.20;;
50555;SDS011;36508;52.512;13.450;2023-12-20T09:28:54;12.80;;;3.37;;
50555;SDS011;36508;52.512;13.450;2023-12-20T09:31:20;4.83;;;2.40;;
50555;SDS011;36508;52.512;13.450;2023-12-20T09:33:46;3.70;;;2.20;;
50555;SDS011;36508;52.512;13.450;2023-12-20T09:36:11;12.23;;;2.77;;
50555;SDS011;36508;52.512;13.450;2023-12-20T09:38:37;5.20;;;2.13;;
50555;SDS011;36508;52.512;13.450;2023-12-20T09:41:03;8.63;;;2.27;;
50555;SDS011;36508;52.512;13.450;2023-12-20T09:43:29;7.57;;;4.37;;
50555;SDS011;36508;52.512;13.450;2023-12-20T09:45:56;12.17;;;3.93;;
50555;SDS011;36508;52.512;13.450;2023-12-20T09:48:25;6.37;;;2.50;;
50555;SDS011;36508;52.512;13.450;2023-12-20T09:50:52;5.83;;;2.97;;
50555;SDS011;36508;52.512;13.450;2023-12-20T09:53:18;4.73;;;2.50;;
50555;SDS011;36508;52.512;13.450;2023-12-20T09:55:46;11.73;;;3.67;;
50555;SDS011;36508;52.512;13.450;2023-12-20T09:58:12;7.77;;;2.67;;
50555;SDS011;36508;52.512;13.450;2023-12-20T10:00:56;5.83;;;2.27;;
50555;SDS011;36508;52.512;13.450;2023-12-20T10:03:23;6.10;;;3.80;;
50555;SDS011;36508;52.512;13.450;2023-12-20T10:05:52;13.10;;;3.20;;
50555;SDS011;36508;52.512;13.450;2023-12-20T10:08:21;3.97;;;2.17;;
50555;SDS011;36508;52.512;13.450;2023-12-20T10:10:47;9.10;;;4.67;;
50555;SDS011;36508;52.512;13.450;2023-12-20T10:13:13;11.97;;;3.07;;
50555;SDS011;36508;52.512;13.450;2023-12-20T10:15:41;7.70;;;2.93;;
50555;SDS011;36508;52.512;13.450;2023-12-20T10:18:09;5.43;;;2.80;;
50555;SDS011;36508;52.512;13.450;2023-12-20T10:20:39;4.63;;;2.30;;
50555;SDS011;36508;52.512;13.450;2023-12-20T10:23:22;12.60;;;3.13;;
50555;SDS011;36508;52.512;13.450;2023-12-20T10:26:18;7.40;;;3.80;;
50555;SDS011;36508;52.512;13.450;2023-12-20T10:28:49;3.30;;;2.17;;
50555;SDS011;36508;52.512;13.450;2023-12-20T10:31:29;10.90;;;3.67;;
50555;SDS011;36508;52.512;13.450;2023-12-20T10:33:59;5.40;;;2.43;;
50555;SDS011;36508;52.512;13.450;2023-12-20T10:36:26;5.07;;;2.33;;
50555;SDS011;36508;52.512;13.450;2023-12-20T10:38:55;8.80;;;3.67;;
50555;SDS011;36508;52.512;13.450;2023-12-20T10:41:29;10.73;;;3.90;;
50555;SDS011;36508;52.512;13.450;2023-12-20T10:43:59;5.77;;;3.23;;
50555;SDS011;36508;52.512;13.450;2023-12-20T10:46:27;8.30;;;3.43;;
50555;SDS011;36508;52.512;13.450;2023-12-20T10:48:54;11.57;;;3.00;;
50555;SDS011;36508;52.512;13.450;2023-12-20T10:51:24;7.10;;;2.17;;
50555;SDS011;36508;52.512;13.450;2023-12-20T10:53:59;6.03;;;2.43;;
50555;SDS011;36508;52.512;13.450;2023-12-20T10:56:25;4.03;;;2.13;;
50555;SDS011;36508;52.512;13.450;2023-12-20T10:58:57;9.27;;;2.67;;
50555;SDS011;36508;52.512;13.450;2023-12-20T11:01:26;8.10;;;3.10;;
50555;SDS011;36508;52.512;13.450;2023-12-20T11:03:54;2.63;;;2.33;;
50555;SDS011;36508;52.512;13.450;2023-12-20T11:14:22;6.10;;;3.07;;
50555;SDS011;36508;52.512;13.450;2023-12-20T11:16:51;2.57;;;2.37;;
50555;SDS011;36508;52.512;13.450;2023-12-20T11:22:29;7.07;;;3.40;;
50555;SDS011;36508;52.512;13.450;2023-12-20T11:25:03;7.20;;;2.90;;
50555;SDS011;36508;52.512;13.450;2023-12-20T11:27:41;6.60;;;4.80;;
50555;SDS011;36508;52.512;13.450;2023-12-20T11:30:10;9.83;;;3.07;;
50555;SDS011;36508;52.512;13.450;2023-12-20T11:32:36;10.77;;;3.50;;
50555;SDS011;36508;52.512;13.450;2023-12-20T11:37:36;10.73;;;4.30;;
50555;SDS011;36508;52.512;13.450;2023-12-20T11:40:05;8.43;;;3.83;;
50555;SDS011;36508;52.512;13.450;2023-12-20T11:42:44;7.90;;;3.57;;
50555;SDS011;36508;52.512;13.450;2023-12-20T11:45:14;10.23;;;4.13;;
50555;SDS011;36508;52.512;13.450;2023-12-20T11:47:44;11.57;;;3.23;;
50555;SDS011;36508;52.512;13.450;2023-12-20T11:50:11;9.17;;;4.50;;
50555;SDS011;36508;52.512;13.450;2023-12-20T11:52:37;9.30;;;5.03;;
50555;SDS011;36508;52.512;13.450;2023-12-20T11:55:03;9.30;;;3.97;;
50555;SDS011;36508;52.512;13.450;2023-12-20T11:57:29;3.93;;;3.50;;
50555;SDS011;36508;52.512;13.450;2023-12-20T11:59:55;7.80;;;4.53;;
50555;SDS011;36508;52.512;13.450;2023-12-20T12:02:22;13.93;;;3.70;;
50555;SDS011;36508;52.512;13.450;2023-12-20T12:04:49;9.20;;;3.90;;
50555;SDS011;36508;52.512;13.450;2023-12-20T12:07:16;6.90;;;3.80;;
50555;SDS011;36508;52.512;13.450;2023-12-20T12:09:42;3.07;;;2.60;;
50555;SDS011;36508;52.512;13.450;2023-12-20T12:12:08;6.87;;;3.97;;
50555;SDS011;36508;52.512;13.450;2023-12-20T12:14:36;4.10;;;2.90;;
50555;SDS011;36508;52.512;13.450;2023-12-20T12:17:02;3.73;;;2.60;;
50555;SDS011;36508;52.512;13.450;2023-12-20T12:19:28;6.30;;;3.40;;
50555;SDS011;36508;52.512;13.450;2023-12-20T12:22:09;5.30;;;2.80;;
50555;SDS011;36508;52.512;13.450;2023-12-20T12:27:09;4.10;;;2.77;;
50555;SDS011;36508;52.512;13.450;2023-12-20T12:29:35;7.27;;;3.00;;
50555;SDS011;36508;52.512;13.450;2023-12-20T12:32:05;8.00;;;3.23;;
50555;SDS011;36508;52.512;13.450;2023-12-20T12:34:33;4.47;;;2.97;;
50555;SDS011;36508;52.512;13.450;2023-12-20T12:37:02;9.40;;;3.93;;
50555;SDS011;36508;52.512;13.450;2023-12-20T12:39:30;3.30;;;3.00;;
50555;SDS011;36508;52.512;13.450;2023-12-20T12:41:56;11.50;;;4.60;;
50555;SDS011;36508;52.512;13.450;2023-12-20T12:44:22;8.10;;;4.37;;
50555;SDS011;36508;52.512;13.450;2023-12-20T12:46:51;7.83;;;3.00;;
50555;SDS011;36508;52.512;13.450;2023-12-20T12:49:19;4.87;;;3.80;;
50555;SDS011;36508;52.512;13.450;2023-12-20T12:51:46;8.37;;;3.10;;
50555;SDS011;36508;52.512;13.450;2023-12-20T12:54:12;4.50;;;4.07;;
50555;SDS011;36508;52.512;13.450;2023-12-20T12:56:38;7.03;;;3.60;;
50555;SDS011;36508;52.512;13.450;2023-12-20T12:59:05;8.20;;;4.73;;
50555;SDS011;36508;52.512;13.450;2023-12-20T13:01:31;9.77;;;4.83;;
50555;SDS011;36508;52.512;13.450;2023-12-20T13:03:56;12.07;;;4.03;;
50555;SDS011;36508;52.512;13.450;2023-12-20T13:06:22;8.00;;;4.80;;
50555;SDS011;36508;52.512;13.450;2023-12-20T13:08:48;4.97;;;3.27;;
50555;SDS011;36508;52.512;13.450;2023-12-20T13:11:15;6.93;;;4.03;;
50555;SDS011;36508;52.512;13.450;2023-12-20T13:13:40;5.53;;;5.00;;
50555;SDS011;36508;52.512;13.450;2023-12-20T14:13:42;2.03;;;1.83;;
50555;SDS011;36508;52.512;13.450;2023-12-20T14:16:08;1.80;;;1.70;;
50555;SDS011;36508;52.512;13.450;2023-12-20T14:18:35;1.40;;;0.90;;
50555;SDS011;36508;52.512;13.450;2023-12-20T14:21:01;2.53;;;2.33;;
50555;SDS011;36508;52.512;13.450;2023-12-20T14:23:27;3.13;;;0.90;;
50555;SDS011;36508;52.512;13.450;2023-12-20T14:25:53;1.10;;;0.83;;
50555;SDS011;36508;52.512;13.450;2023-12-20T14:28:19;1.27;;;1.17;;
50555;SDS011;36508;52.512;13.450;2023-12-20T14:30:45;2.07;;;1.10;;
50555;SDS011;36508;52.512;13.450;2023-12-20T14:33:11;1.70;;;1.03;;
50555;SDS011;36508;52.512;13.450;2023-12-20T14:35:36;1.23;;;0.93;;
50555;SDS011;36508;52.512;13.450;2023-12-20T14:38:02;2.53;;;1.30;;
50555;SDS011;36508;52.512;13.450;2023-12-20T14:40:28;2.53;;;2.33;;
50555;SDS011;36508;52.512;13.450;2023-12-20T14:42:54;1.93;;;0.90;;
50555;SDS011;36508;52.512;13.450;2023-12-20T14:45:19;0.90;;;0.90;;
50555;SDS011;36508;52.512;13.450;2023-12-20T14:47:46;1.53;;;0.80;;
50555;SDS011;36508;52.512;13.450;2023-12-20T14:50:17;2.10;;;1.43;;
50555;SDS011;36508;52.512;13.450;2023-12-20T14:52:43;0.80;;;0.70;;
50555;SDS011;36508;52.512;13.450;2023-12-20T14:55:10;0.77;;;0.70;;
50555;SDS011;36508;52.512;13.450;2023-12-20T14:57:36;1.70;;;0.97;;
50555;SDS011;36508;52.512;13.450;2023-12-20T15:00:02;2.83;;;1.20;;
50555;SDS011;36508;52.512;13.450;2023-12-20T15:02:29;3.90;;;1.50;;
50555;SDS011;36508;52.512;13.450;2023-12-20T15:04:59;1.83;;;1.20;;
50555;SDS011;36508;52.512;13.450;2023-12-20T15:07:24;3.63;;;0.90;;
50555;SDS011;36508;52.512;13.450;2023-12-20T15:09:50;1.20;;;0.93;;
50555;SDS011;36508;52.512;13.450;2023-12-20T15:12:16;5.03;;;3.47;;
50555;SDS011;36508;52.512;13.450;2023-12-20T15:14:41;2.40;;;2.13;;
50555;SDS011;36508;52.512;13.450;2023-12-20T15:17:07;1.40;;;1.27;;
50555;SDS011;36508;52.512;13.450;2023-12-20T15:19:33;1.57;;;1.47;;
50555;SDS011;36508;52.512;13.450;2023-12-20T15:21:59;2.30;;;1.10;;
50555;SDS011;36508;52.512;13.450;2023-12-20T15:24:25;3.27;;;1.73;;
50555;SDS011;36508;52.512;13.450;2023-12-20T15:27:02;4.93;;;2.30;;
50555;SDS011;36508;52.512;13.450;2023-12-20T15:29:29;2.60;;;1.83;;
50555;SDS011;36508;52.512;13.450;2023-12-20T15:31:56;0.87;;;0.87;;
50555;SDS011;36508;52.512;13.450;2023-12-20T15:34:24;1.37;;;1.23;;
50555;SDS011;36508;52.512;13.450;2023-12-20T15:36:49;1.97;;;1.87;;
50555;SDS011;36508;52.512;13.450;2023-12-20T15:39:15;2.20;;;1.93;;
50555;SDS011;36508;52.512;13.450;2023-12-20T15:41:41;2.07;;;1.27;;
50555;SDS011;36508;52.512;13.450;2023-12-20T15:44:07;2.93;;;1.77;;
50555;SDS011;36508;52.512;13.450;2023-12-20T15:46:33;1.67;;;1.30;;
50555;SDS011;36508;52.512;13.450;2023-12-20T15:48:59;1.77;;;1.37;;
50555;SDS011;36508;52.512;13.450;2023-12-20T15:51:24;1.80;;;1.33;;
50555;SDS011;36508;52.512;13.450;2023-12-20T15:53:50;4.53;;;1.40;;
50555;SDS011;36508;52.512;13.450;2023-12-20T15:56:16;3.93;;;1.50;;
50555;SDS011;36508;52.512;13.450;2023-12-20T15:58:43;5.37;;;1.93;;
50555;SDS011;36508;52.512;13.450;2023-12-20T16:01:11;2.80;;;1.40;;
50555;SDS011;36508;52.512;13.450;2023-12-20T16:03:37;2.90;;;2.10;;
50555;SDS011;36508;52.512;13.450;2023-12-20T16:06:02;4.20;;;1.37;;
50555;SDS011;36508;52.512;13.450;2023-12-20T16:08:28;4.73;;;2.03;;
50555;SDS011;36508;52.512;13.450;2023-12-20T16:10:54;1.33;;;1.00;;
50555;SDS011;36508;52.512;13.450;2023-12-20T16:13:20;3.17;;;1.17;;
50555;SDS011;36508;52.512;13.450;2023-12-20T16:15:45;3.90;;;1.20;;
50555;SDS011;36508;52.512;13.450;2023-12-20T16:18:12;5.13;;;1.80;;
50555;SDS011;36508;52.512;13.450;2023-12-20T16:20:38;10.27;;;2.40;;
50555;SDS011;36508;52.512;13.450;2023-12-20T16:23:04;5.43;;;1.50;;
50555;SDS011;36508;52.512;13.450;2023-12-20T16:25:33;4.30;;;1.27;;